Time;durP1;ratioP1;P1;durP2;ratioP2;P2;SDS_P1;SDS_P2;PMS_P1;PMS_P2;Temp;Humidity;BMP_temperature;BMP_pressure;BME280_temperature;BME280_humidity;BME280_pressure;Samples;Min_cycle;Max_cycle;Signal;HPM_P1;HPM_P2
2021/12/24 00:00:51;;;;;;;2.40;2.20;;;19.20;37.40;;;;;;5070715;28;20417;-65
2021/12/24 00:03:17;;;;;;;2.90;2.70;;;19.20;37.30;;;;;;5070144;28;20209;-63
2021/12/24 00:05:43;;;;;;;2.33;2.23;;;19.20;37.30;;;;;;5071749;28;21032;-63
2021/12/24 00:08:09;;;;;;;2.50;2.40;;;19.20;37.30;;;;;;5069402;28;20314;-63
2021/12/24 00:10:36;;;;;;;2.73;2.53;;;19.20;37.30;;;;;;5070069;28;20214;-63
2021/12/24 00:13:07;;;;;;;2.20;2.10;;;19.20;37.30;;;;;;5070869;28;20974;-63
2021/12/24 00:18:10;;;;;;;2.50;2.30;;;19.20;37.30;;;;;;5070694;28;20446;-64
2021/12/24 00:36:44;;;;;;;2.30;2.10;;;19.20;37.40;;;;;;5068297;28;20432;-62
2021/12/24 00:39:10;;;;;;;2.40;2.30;;;19.10;37.30;;;;;;5069193;28;20447;-63
2021/12/24 00:41:36;;;;;;;2.20;2.10;;;19.10;36.70;;;;;;5070837;28;20273;-62
2021/12/24 00:44:02;;;;;;;2.37;2.27;;;19.10;37.40;;;;;;5071205;28;20547;-62
2021/12/24 00:46:27;;;;;;;2.20;2.10;;;19.10;37.30;;;;;;5070896;28;20225;-63
2021/12/24 00:48:53;;;;;;;2.10;2.00;;;19.20;37.40;;;;;;5068740;28;20230;-64
2021/12/24 00:56:47;;;;;;;2.10;2.00;;;19.10;37.40;;;;;;5069424;28;20452;-63
2021/12/24 00:59:13;;;;;;;2.37;2.20;;;19.10;37.40;;;;;;5071983;28;20447;-63
2021/12/24 01:01:39;;;;;;;1.93;1.83;;;19.10;37.40;;;;;;5067790;28;20233;-63
2021/12/24 01:04:04;;;;;;;2.27;2.17;;;19.10;37.40;;;;;;5070250;28;20595;-63
2021/12/24 01:06:30;;;;;;;2.43;2.23;;;19.10;37.40;;;;;;5070827;28;20248;-64
2021/12/24 01:08:55;;;;;;;2.27;2.17;;;19.10;37.40;;;;;;5069904;28;20356;-63
2021/12/24 01:11:21;;;;;;;2.30;2.10;;;19.10;37.50;;;;;;5068242;28;20779;-63
2021/12/24 01:13:47;;;;;;;2.33;2.13;;;19.10;37.40;;;;;;5070339;28;20226;-63
2021/12/24 01:16:24;;;;;;;2.10;2.00;;;19.10;37.40;;;;;;5068703;28;20217;-63
2021/12/24 01:19:00;;;;;;;2.33;2.23;;;19.10;37.40;;;;;;5067266;28;20221;-64
2021/12/24 01:21:52;;;;;;;2.10;2.00;;;19.10;37.40;;;;;;5066649;28;20455;-63
2021/12/24 01:24:23;;;;;;;3.03;2.10;;;19.10;37.50;;;;;;5070291;28;20478;-63
2021/12/24 01:40:24;;;;;;;2.43;2.33;;;19.10;37.50;;;;;;5069637;28;20545;-63
2021/12/24 01:42:51;;;;;;;2.30;2.20;;;19.10;37.60;;;;;;5069007;28;20459;-63
2021/12/24 01:45:28;;;;;;;2.27;2.17;;;19.10;37.60;;;;;;5065340;28;20440;-63
2021/12/24 01:47:57;;;;;;;2.10;2.00;;;19.10;37.60;;;;;;5068607;28;20471;-63
2021/12/24 01:50:25;;;;;;;1.90;1.80;;;19.10;37.60;;;;;;5067872;28;20438;-63
2021/12/24 01:52:53;;;;;;;2.20;2.10;;;19.10;37.60;;;;;;5068892;28;20450;-64
2021/12/24 01:55:19;;;;;;;2.03;1.93;;;19.10;37.60;;;;;;5067757;28;20451;-63
2021/12/24 01:57:45;;;;;;;2.27;2.17;;;19.10;37.60;;;;;;5068311;28;20426;-62
2021/12/24 02:00:15;;;;;;;2.43;2.30;;;19.10;37.60;;;;;;5070101;28;20530;-63
2021/12/24 02:02:42;;;;;;;1.80;1.70;;;19.10;37.70;;;;;;5068843;28;20520;-64
2021/12/24 02:05:08;;;;;;;1.90;1.80;;;19.10;37.60;;;;;;5068258;28;20521;-62
2021/12/24 02:07:33;;;;;;;1.90;1.80;;;19.10;37.60;;;;;;5066826;28;20517;-62
2021/12/24 02:09:59;;;;;;;2.00;1.90;;;19.10;37.70;;;;;;5069899;28;20805;-62
2021/12/24 02:12:26;;;;;;;2.30;2.10;;;19.10;37.60;;;;;;5066883;28;20694;-64
2021/12/24 02:14:55;;;;;;;2.00;1.90;;;19.10;37.70;;;;;;5069898;28;20214;-63
2021/12/24 02:28:28;;;;;;;1.90;1.80;;;19.10;38.50;;;;;;5067738;28;20458;-63
2021/12/24 02:30:54;;;;;;;2.10;2.00;;;19.10;37.70;;;;;;5068284;28;20450;-63
2021/12/24 02:33:20;;;;;;;1.83;1.73;;;19.10;37.70;;;;;;5067289;28;20412;-63
2021/12/24 02:35:46;;;;;;;2.10;2.00;;;19.10;37.80;;;;;;5069517;28;20449;-64
2021/12/24 02:38:11;;;;;;;2.47;2.27;;;19.10;37.70;;;;;;5066554;28;20225;-63
2021/12/24 02:40:37;;;;;;;2.03;1.93;;;19.10;38.60;;;;;;5069996;28;20413;-63
2021/12/24 02:43:04;;;;;;;2.20;2.10;;;19.10;37.70;;;;;;5066734;28;20261;-64
2021/12/24 02:45:34;;;;;;;2.10;2.00;;;19.10;37.70;;;;;;5067101;28;20458;-63
2021/12/24 02:56:00;;;;;;;2.30;2.20;;;19.10;38.00;;;;;;5066292;28;20454;-62
2021/12/24 02:58:26;;;;;;;2.33;1.73;;;19.10;37.90;;;;;;5067476;28;20474;-64
2021/12/24 03:00:52;;;;;;;2.20;2.10;;;19.10;37.80;;;;;;5068609;28;20470;-63
2021/12/24 03:03:17;;;;;;;2.83;2.63;;;19.10;37.80;;;;;;5066182;28;20670;-63
2021/12/24 03:05:43;;;;;;;2.37;2.17;;;19.10;37.90;;;;;;5069058;28;20511;-62
2021/12/24 03:08:09;;;;;;;2.30;2.10;;;19.10;37.90;;;;;;5067303;28;20225;-62
2021/12/24 03:10:36;;;;;;;2.30;2.17;;;19.00;38.70;;;;;;5070218;28;20693;-63
2021/12/24 03:13:03;;;;;;;2.00;1.90;;;19.10;38.00;;;;;;5072906;28;20256;-62
2021/12/24 03:15:29;;;;;;;1.80;1.70;;;19.00;37.90;;;;;;5073305;28;20446;-62
2021/12/24 03:17:58;;;;;;;2.00;1.90;;;19.00;37.90;;;;;;5072350;28;20450;-63
2021/12/24 03:20:24;;;;;;;1.80;1.70;;;19.00;37.90;;;;;;5072279;28;20453;-63
2021/12/24 03:25:28;;;;;;;2.27;2.13;;;19.00;37.90;;;;;;5072874;28;20548;-63
2021/12/24 03:27:53;;;;;;;2.00;1.90;;;19.10;38.00;;;;;;5071248;28;20534;-64
2021/12/24 03:30:19;;;;;;;2.00;1.90;;;19.00;37.90;;;;;;5068901;28;20556;-63
2021/12/24 03:32:45;;;;;;;1.83;1.73;;;19.00;38.00;;;;;;5072703;28;20233;-64
2021/12/24 03:35:10;;;;;;;2.00;1.90;;;19.00;37.90;;;;;;5071288;28;20236;-63
2021/12/24 03:37:36;;;;;;;2.30;2.20;;;19.00;38.00;;;;;;5069274;28;20324;-62
2021/12/24 03:40:03;;;;;;;2.20;2.00;;;19.10;38.10;;;;;;5072552;28;20308;-62
2021/12/24 03:42:30;;;;;;;1.90;1.80;;;19.10;38.10;;;;;;5071296;28;20631;-62
2021/12/24 03:45:08;;;;;;;2.40;2.30;;;19.00;37.90;;;;;;5069654;28;20458;-63
2021/12/24 03:47:38;;;;;;;2.20;2.10;;;19.00;38.00;;;;;;5067919;28;20446;-64
2021/12/24 03:50:09;;;;;;;2.27;2.10;;;19.00;38.00;;;;;;5070476;28;20802;-64
2021/12/24 03:53:01;;;;;;;2.07;1.97;;;19.00;38.00;;;;;;5070494;28;20490;-63
2021/12/24 03:55:23;;;;;;;2.33;2.13;;;19.00;38.00;;;;;;5070981;28;20504;-64
2021/12/24 03:57:49;;;;;;;2.10;1.90;;;19.00;38.10;;;;;;5069512;28;20451;-65
2021/12/24 04:00:24;;;;;;;2.00;1.90;;;19.00;38.10;;;;;;5070040;28;20297;-65
2021/12/24 04:02:50;;;;;;;1.80;1.70;;;19.00;38.10;;;;;;5068864;28;20232;-64
2021/12/24 04:05:16;;;;;;;2.30;2.20;;;19.00;38.10;;;;;;5071900;28;20444;-65
2021/12/24 04:07:41;;;;;;;1.90;1.77;;;19.00;38.10;;;;;;5069713;28;20682;-64
2021/12/24 04:10:27;;;;;;;1.60;1.50;;;19.00;38.10;;;;;;5070425;28;20223;-63
2021/12/24 04:12:53;;;;;;;2.50;1.83;;;19.00;38.10;;;;;;5068887;28;20221;-65
2021/12/24 04:15:19;;;;;;;2.10;2.00;;;19.00;38.10;;;;;;5070814;28;20958;-63
2021/12/24 04:17:45;;;;;;;2.47;2.37;;;19.00;38.10;;;;;;5069606;28;20242;-65
2021/12/24 04:25:57;;;;;;;1.80;1.70;;;19.00;38.10;;;;;;5062998;28;20499;-63
2021/12/24 04:28:22;;;;;;;2.10;1.90;;;19.00;38.10;;;;;;5071191;28;20829;-63
2021/12/24 04:30:51;;;;;;;2.07;1.97;;;19.00;38.20;;;;;;5068211;28;20229;-63
2021/12/24 04:33:25;;;;;;;1.73;1.63;;;19.00;38.10;;;;;;5068945;28;20226;-64
2021/12/24 04:38:37;;;;;;;2.00;1.90;;;19.00;38.20;;;;;;5071455;28;20455;-64
2021/12/24 04:52:08;;;;;;;2.07;1.97;;;19.00;38.30;;;;;;5068324;28;20469;-62
2021/12/24 05:02:56;;;;;;;2.10;2.00;;;19.00;38.20;;;;;;5068616;28;20485;-63
2021/12/24 05:10:28;;;;;;;1.93;1.83;;;19.00;38.30;;;;;;5068350;28;20662;-63
2021/12/24 05:12:53;;;;;;;1.80;1.70;;;19.00;38.30;;;;;;5069382;28;20528;-63
2021/12/24 05:15:19;;;;;;;2.00;1.90;;;19.00;38.30;;;;;;5067161;28;20500;-62
2021/12/24 05:18:03;;;;;;;1.90;1.80;;;19.00;38.30;;;;;;5070051;28;20218;-63
2021/12/24 05:23:13;;;;;;;1.73;1.63;;;19.00;38.30;;;;;;5069473;28;20469;-63
2021/12/24 05:25:43;;;;;;;1.97;1.87;;;19.00;38.20;;;;;;5070916;28;20439;-66
2021/12/24 05:28:08;;;;;;;1.90;1.80;;;19.00;38.20;;;;;;5069069;28;20724;-63
2021/12/24 05:30:34;;;;;;;2.20;2.10;;;19.00;38.20;;;;;;5068835;28;20442;-62
2021/12/24 05:32:59;;;;;;;1.83;1.73;;;19.00;38.20;;;;;;5068788;28;20651;-63
2021/12/24 05:35:25;;;;;;;1.97;1.87;;;19.00;38.20;;;;;;5069842;28;20937;-63
2021/12/24 05:37:51;;;;;;;2.30;2.10;;;19.00;38.20;;;;;;5070449;28;20213;-63
2021/12/24 05:40:16;;;;;;;1.97;1.87;;;19.00;38.30;;;;;;5068818;28;20226;-63
2021/12/24 05:42:42;;;;;;;2.07;1.97;;;19.00;38.20;;;;;;5069283;28;20324;-62
2021/12/24 05:45:10;;;;;;;1.90;1.80;;;19.00;38.30;;;;;;5068872;28;20249;-62
2021/12/24 05:47:36;;;;;;;2.03;1.93;;;19.10;38.30;;;;;;5068925;28;23151;-62
2021/12/24 05:50:03;;;;;;;2.20;2.07;;;19.10;38.40;;;;;;5066117;28;20538;-63
2021/12/24 05:52:29;;;;;;;1.77;1.67;;;19.10;38.40;;;;;;5069689;28;20275;-62
2021/12/24 05:54:55;;;;;;;2.20;2.10;;;19.10;38.30;;;;;;5069462;28;20413;-62
2021/12/24 05:57:21;;;;;;;1.77;1.67;;;19.10;38.40;;;;;;5069720;28;20225;-65
2021/12/24 05:59:46;;;;;;;1.80;1.70;;;19.10;38.30;;;;;;5068231;28;20232;-62
2021/12/24 06:02:12;;;;;;;1.67;1.57;;;19.10;38.30;;;;;;5066022;28;20233;-63
2021/12/24 06:04:38;;;;;;;2.20;1.93;;;19.10;38.40;;;;;;5068222;28;20253;-63
2021/12/24 06:07:03;;;;;;;7.20;2.90;;;19.10;38.40;;;;;;5069269;28;20252;-62
2021/12/24 06:09:29;;;;;;;2.17;2.07;;;19.10;38.30;;;;;;5068402;28;20213;-62
2021/12/24 06:11:55;;;;;;;1.80;1.70;;;19.10;38.30;;;;;;5068764;28;20218;-63
2021/12/24 06:14:20;;;;;;;2.60;2.40;;;19.10;38.30;;;;;;5068733;28;20322;-62
2021/12/24 06:16:58;;;;;;;1.83;1.73;;;19.10;38.30;;;;;;5068853;28;20225;-63
2021/12/24 06:19:26;;;;;;;1.67;1.57;;;19.10;38.30;;;;;;5065639;28;20659;-64
2021/12/24 06:21:52;;;;;;;1.87;1.77;;;19.10;38.30;;;;;;5066379;28;21081;-63
2021/12/24 06:24:19;;;;;;;1.80;1.70;;;19.20;38.30;;;;;;5069534;28;20450;-63
2021/12/24 06:26:45;;;;;;;1.77;1.67;;;19.10;38.30;;;;;;5063679;28;20443;-62
2021/12/24 06:29:11;;;;;;;1.97;1.87;;;19.20;38.30;;;;;;5065267;28;20443;-62
2021/12/24 06:31:36;;;;;;;2.07;1.97;;;19.20;38.30;;;;;;5066007;28;20457;-62
2021/12/24 06:34:02;;;;;;;2.13;2.03;;;19.20;38.30;;;;;;5068261;28;20214;-62
2021/12/24 06:36:30;;;;;;;2.13;1.93;;;19.20;38.30;;;;;;5069243;28;20225;-62
2021/12/24 06:38:56;;;;;;;3.17;1.90;;;19.20;38.20;;;;;;5068554;28;20522;-63
2021/12/24 06:41:21;;;;;;;2.23;2.00;;;19.20;38.30;;;;;;5067281;28;20498;-64
2021/12/24 06:43:47;;;;;;;1.67;1.57;;;19.20;38.30;;;;;;5067795;28;20251;-62
2021/12/24 06:46:13;;;;;;;2.00;1.90;;;19.20;38.30;;;;;;5069598;28;20213;-62
2021/12/24 06:48:41;;;;;;;2.20;2.10;;;19.20;38.30;;;;;;5057830;28;20229;-68
2021/12/24 06:51:07;;;;;;;1.83;1.73;;;19.20;38.30;;;;;;5065383;28;20222;-62
2021/12/24 06:53:32;;;;;;;1.90;1.80;;;19.20;38.30;;;;;;5066544;28;20530;-62
2021/12/24 06:55:58;;;;;;;1.67;1.57;;;19.20;38.30;;;;;;5067434;28;20233;-62
2021/12/24 06:58:24;;;;;;;2.03;1.80;;;19.20;38.30;;;;;;5068610;28;20266;-63
2021/12/24 07:00:49;;;;;;;2.07;1.87;;;19.20;38.30;;;;;;5068651;28;20245;-63
2021/12/24 07:03:15;;;;;;;1.80;1.70;;;19.20;38.30;;;;;;5068447;28;20234;-63
2021/12/24 07:05:41;;;;;;;2.00;1.90;;;19.20;38.30;;;;;;5067385;28;20233;-62
2021/12/24 07:08:06;;;;;;;1.70;1.60;;;19.20;38.30;;;;;;5067925;28;20218;-62
2021/12/24 07:10:32;;;;;;;1.80;1.70;;;19.20;38.30;;;;;;5066384;28;20593;-61
2021/12/24 07:12:57;;;;;;;2.40;2.20;;;19.20;38.30;;;;;;5066355;28;20283;-62
2021/12/24 07:15:23;;;;;;;2.30;2.10;;;19.20;38.20;;;;;;5067150;28;20218;-62
2021/12/24 07:17:49;;;;;;;2.23;1.70;;;19.20;38.30;;;;;;5067581;28;20228;-62
2021/12/24 07:20:15;;;;;;;2.00;1.90;;;19.20;38.20;;;;;;5069395;28;20655;-62
2021/12/24 07:22:41;;;;;;;1.97;1.87;;;19.20;38.20;;;;;;5068117;28;20458;-63
2021/12/24 07:25:08;;;;;;;3.00;2.20;;;19.20;38.20;;;;;;5068164;28;20446;-64
2021/12/24 07:27:34;;;;;;;2.03;1.93;;;19.20;38.10;;;;;;5066449;28;20279;-62
2021/12/24 07:30:00;;;;;;;1.80;1.70;;;19.20;38.10;;;;;;5066054;28;20462;-63
2021/12/24 07:32:26;;;;;;;2.40;2.30;;;19.20;38.20;;;;;;5068265;28;20929;-62
2021/12/24 07:34:52;;;;;;;2.30;2.10;;;19.30;38.20;;;;;;5063769;28;20440;-63
2021/12/24 07:37:18;;;;;;;1.97;1.87;;;19.30;38.20;;;;;;5067335;28;20225;-62
2021/12/24 07:39:44;;;;;;;2.20;2.10;;;19.30;38.20;;;;;;5068144;28;20678;-63
2021/12/24 07:42:10;;;;;;;2.40;2.30;;;19.30;38.20;;;;;;5066844;28;20466;-63
2021/12/24 07:44:36;;;;;;;2.00;1.90;;;19.30;38.10;;;;;;5066495;28;22149;-64
2021/12/24 07:47:05;;;;;;;2.80;1.80;;;19.30;38.00;;;;;;5065722;28;20780;-62
2021/12/24 07:49:37;;;;;;;1.93;1.83;;;19.30;38.00;;;;;;5065759;28;20209;-64
2021/12/24 07:52:09;;;;;;;1.67;1.57;;;19.30;38.00;;;;;;5066803;28;20795;-61
2021/12/24 07:54:45;;;;;;;1.67;1.57;;;19.40;38.00;;;;;;5068345;28;20530;-64
2021/12/24 07:57:15;;;;;;;1.73;1.63;;;19.40;38.10;;;;;;5068178;28;20421;-63
2021/12/24 07:59:42;;;;;;;2.03;1.93;;;19.30;38.00;;;;;;5070798;28;20450;-63
2021/12/24 08:02:16;;;;;;;2.30;2.03;;;19.40;38.10;;;;;;5071868;28;20470;-62
2021/12/24 08:04:44;;;;;;;1.80;1.70;;;19.40;38.10;;;;;;5070509;28;20809;-62
2021/12/24 08:07:11;;;;;;;1.87;1.77;;;19.40;38.00;;;;;;5070785;28;20442;-62
2021/12/24 08:09:38;;;;;;;1.80;1.70;;;19.40;38.70;;;;;;5070470;28;20489;-64
2021/12/24 08:12:08;;;;;;;2.07;1.97;;;19.40;37.90;;;;;;5070221;28;20620;-62
2021/12/24 08:14:35;;;;;;;1.60;1.50;;;19.40;37.90;;;;;;5069885;28;20439;-62
2021/12/24 08:17:00;;;;;;;1.90;1.80;;;19.50;37.90;;;;;;5070320;28;20466;-66
2021/12/24 08:19:26;;;;;;;1.97;1.87;;;19.50;37.90;;;;;;5070643;28;20455;-62
2021/12/24 08:21:52;;;;;;;2.00;1.90;;;19.50;37.90;;;;;;5069647;28;20271;-62
2021/12/24 08:24:18;;;;;;;1.80;1.70;;;19.50;38.00;;;;;;5070754;28;21301;-63
2021/12/24 08:26:44;;;;;;;1.90;1.80;;;19.50;38.00;;;;;;5070032;28;20217;-62
2021/12/24 08:29:10;;;;;;;1.93;1.83;;;19.50;38.00;;;;;;5070710;28;20328;-62
2021/12/24 08:31:36;;;;;;;2.30;2.10;;;19.50;38.00;;;;;;5070327;28;20238;-63
2021/12/24 08:34:04;;;;;;;1.70;1.60;;;19.50;38.10;;;;;;5070030;28;20671;-62
2021/12/24 08:36:31;;;;;;;1.90;1.80;;;19.50;38.10;;;;;;5070837;28;20451;-62
2021/12/24 08:38:57;;;;;;;1.70;1.60;;;19.40;38.10;;;;;;5069879;28;20487;-64
2021/12/24 08:41:24;;;;;;;2.60;1.77;;;19.50;38.20;;;;;;5069405;28;20486;-62
2021/12/24 08:43:51;;;;;;;2.00;1.87;;;19.40;38.10;;;;;;5069606;28;20525;-64
2021/12/24 08:46:16;;;;;;;2.00;1.90;;;19.50;38.20;;;;;;5067959;28;20445;-62
2021/12/24 08:48:42;;;;;;;4.80;2.10;;;19.40;38.10;;;;;;5071481;28;20451;-61
2021/12/24 08:51:07;;;;;;;3.07;2.00;;;19.40;38.20;;;;;;5069386;28;20674;-64
2021/12/24 08:53:33;;;;;;;1.77;1.67;;;19.40;38.30;;;;;;5068416;28;20256;-61
2021/12/24 08:55:59;;;;;;;1.90;1.70;;;19.40;38.30;;;;;;5070916;28;20214;-62
2021/12/24 08:58:25;;;;;;;2.17;2.07;;;19.40;38.30;;;;;;5068645;28;20214;-63
2021/12/24 09:00:50;;;;;;;1.80;1.70;;;19.40;38.30;;;;;;5069464;28;20217;-62
2021/12/24 09:03:16;;;;;;;1.80;1.70;;;19.40;38.40;;;;;;5069697;28;20752;-63
2021/12/24 09:05:42;;;;;;;4.60;1.80;;;19.40;38.40;;;;;;5070736;28;20237;-61
2021/12/24 09:08:07;;;;;;;1.93;1.83;;;19.40;38.40;;;;;;5070570;28;20224;-61
2021/12/24 09:10:34;;;;;;;2.50;2.27;;;19.40;38.50;;;;;;5070338;28;20332;-62
2021/12/24 09:13:00;;;;;;;1.70;1.60;;;19.40;38.50;;;;;;5068880;28;20219;-62
2021/12/24 09:15:29;;;;;;;2.00;1.90;;;19.40;38.50;;;;;;5068407;28;20448;-61
2021/12/24 09:17:59;;;;;;;2.10;1.90;;;19.40;38.50;;;;;;5067927;28;20867;-62
2021/12/24 09:20:31;;;;;;;2.00;1.90;;;19.40;38.60;;;;;;5068066;28;20454;-62
2021/12/24 09:22:59;;;;;;;2.10;1.90;;;19.40;38.60;;;;;;5066852;28;20985;-61
2021/12/24 09:25:26;;;;;;;1.90;1.80;;;19.40;38.60;;;;;;5067992;28;20520;-61
2021/12/24 09:27:52;;;;;;;1.90;1.80;;;19.40;38.60;;;;;;5070019;28;20963;-63
2021/12/24 09:30:18;;;;;;;2.07;1.97;;;19.40;38.60;;;;;;5068356;28;20450;-64
2021/12/24 09:32:44;;;;;;;2.00;1.90;;;19.40;38.70;;;;;;5070964;28;20442;-64
2021/12/24 09:35:10;;;;;;;5.00;1.90;;;19.40;38.70;;;;;;5067848;28;20442;-63
2021/12/24 09:37:37;;;;;;;1.90;1.80;;;19.40;38.70;;;;;;5069533;28;20426;-64
2021/12/24 09:40:04;;;;;;;2.00;1.90;;;19.40;38.70;;;;;;5069156;28;20940;-62
2021/12/24 09:42:31;;;;;;;2.10;1.90;;;19.40;38.70;;;;;;5068942;28;20470;-62
2021/12/24 09:44:58;;;;;;;1.70;1.60;;;19.40;38.70;;;;;;5069937;28;20438;-62
2021/12/24 09:47:24;;;;;;;2.70;2.00;;;19.40;38.70;;;;;;5068481;28;20470;-62
2021/12/24 09:49:50;;;;;;;2.10;2.00;;;19.40;38.70;;;;;;5069446;28;20435;-66
2021/12/24 09:52:17;;;;;;;2.13;1.73;;;19.40;38.70;;;;;;5067278;28;20457;-62
2021/12/24 09:54:44;;;;;;;3.67;2.03;;;19.40;38.70;;;;;;5068395;28;20541;-62
2021/12/24 09:57:10;;;;;;;2.13;1.90;;;19.40;38.70;;;;;;5065885;28;20495;-64
2021/12/24 09:59:36;;;;;;;2.07;1.97;;;19.40;38.70;;;;;;5069283;28;20430;-61
2021/12/24 10:02:03;;;;;;;1.83;1.73;;;19.40;38.70;;;;;;5068569;28;20260;-62
2021/12/24 10:04:34;;;;;;;1.83;1.73;;;19.40;38.70;;;;;;5069243;28;20518;-63
2021/12/24 10:07:09;;;;;;;2.10;2.00;;;19.40;38.70;;;;;;5065292;28;20497;-62
2021/12/24 10:09:38;;;;;;;3.53;1.80;;;19.40;38.70;;;;;;5068631;28;20494;-62
2021/12/24 10:12:09;;;;;;;2.20;1.77;;;19.30;38.60;;;;;;5067433;28;20477;-61
2021/12/24 10:14:38;;;;;;;1.60;1.50;;;19.40;38.70;;;;;;5068612;28;20524;-61
2021/12/24 10:17:12;;;;;;;1.90;1.80;;;19.30;38.60;;;;;;5067799;28;20484;-63
2021/12/24 10:19:48;;;;;;;2.27;2.07;;;19.30;38.60;;;;;;5064705;28;20857;-64
2021/12/24 10:22:15;;;;;;;1.60;1.50;;;19.30;38.60;;;;;;5065812;28;20467;-66
2021/12/24 10:24:41;;;;;;;2.17;1.97;;;19.30;38.60;;;;;;5068174;28;20435;-68
2021/12/24 10:27:07;;;;;;;1.70;1.60;;;19.30;38.60;;;;;;5067486;28;20427;-69
2021/12/24 10:29:34;;;;;;;1.63;1.53;;;19.30;38.60;;;;;;5068654;28;20449;-68
2021/12/24 10:32:11;;;;;;;15.70;2.00;;;19.30;38.60;;;;;;5066098;28;20262;-69
2021/12/24 10:34:37;;;;;;;6.23;1.87;;;19.30;38.60;;;;;;5069080;28;22114;-66
2021/12/24 10:37:14;;;;;;;4.80;2.17;;;19.30;38.60;;;;;;5067599;28;20534;-67
2021/12/24 10:39:44;;;;;;;1.90;1.80;;;19.30;38.60;;;;;;5066231;28;20443;-66
2021/12/24 10:42:14;;;;;;;4.00;1.93;;;19.30;38.60;;;;;;5067146;28;20486;-66
2021/12/24 10:44:42;;;;;;;3.57;1.73;;;19.30;38.60;;;;;;5067813;28;20845;-69
2021/12/24 10:47:12;;;;;;;4.70;2.00;;;19.30;38.60;;;;;;5066761;28;20784;-68
2021/12/24 10:55:20;;;;;;;2.20;1.77;;;19.30;38.60;;;;;;5067886;28;20434;-67
2021/12/24 10:57:49;;;;;;;5.70;1.63;;;19.30;38.60;;;;;;5065069;28;20443;-67
2021/12/24 11:00:25;;;;;;;2.63;2.13;;;19.30;38.60;;;;;;5067899;28;20973;-68
2021/12/24 11:03:00;;;;;;;9.47;2.10;;;19.30;38.60;;;;;;5067514;28;20491;-68
2021/12/24 11:05:34;;;;;;;1.90;1.80;;;19.30;38.60;;;;;;5067937;28;20463;-67
2021/12/24 11:08:03;;;;;;;2.10;1.70;;;19.30;38.60;;;;;;5068320;28;20492;-70
2021/12/24 11:10:32;;;;;;;2.23;1.60;;;19.30;38.60;;;;;;5064906;28;20508;-67
2021/12/24 11:13:07;;;;;;;2.80;2.00;;;19.30;38.60;;;;;;5067159;28;21236;-66
2021/12/24 11:15:39;;;;;;;3.00;1.50;;;19.30;38.60;;;;;;5066752;28;20533;-69
2021/12/24 11:18:27;;;;;;;2.10;1.80;;;19.30;38.60;;;;;;5068057;28;20542;-66
2021/12/24 11:21:04;;;;;;;1.57;1.47;;;19.30;38.60;;;;;;5067898;28;20473;-66
2021/12/24 11:23:32;;;;;;;5.83;2.10;;;19.30;38.60;;;;;;5062145;28;20584;-68
2021/12/24 11:26:07;;;;;;;3.10;1.57;;;19.30;38.60;;;;;;5063843;28;20447;-66
2021/12/24 11:28:34;;;;;;;1.57;1.47;;;19.30;38.60;;;;;;5067826;28;20493;-66
2021/12/24 11:31:11;;;;;;;5.43;2.70;;;19.30;38.60;;;;;;5066849;28;20801;-66
2021/12/24 11:33:38;;;;;;;1.70;1.60;;;19.30;39.30;;;;;;5071125;28;20442;-70
2021/12/24 11:36:06;;;;;;;2.03;1.70;;;19.30;38.60;;;;;;5071166;28;20449;-67
2021/12/24 11:38:35;;;;;;;1.73;1.63;;;19.30;38.60;;;;;;5070050;28;20508;-66
2021/12/24 11:41:02;;;;;;;2.10;1.70;;;19.30;38.60;;;;;;5067481;28;20472;-66
2021/12/24 11:43:32;;;;;;;2.10;1.90;;;19.30;38.60;;;;;;5068372;28;20958;-66
2021/12/24 11:46:06;;;;;;;2.50;1.67;;;19.30;38.60;;;;;;5069005;28;20462;-67
2021/12/24 11:48:33;;;;;;;2.27;1.60;;;19.30;38.60;;;;;;5071418;28;20466;-67
2021/12/24 11:51:23;;;;;;;1.70;1.60;;;19.30;38.60;;;;;;5071956;28;20545;-67
2021/12/24 11:53:51;;;;;;;3.57;1.97;;;19.30;38.60;;;;;;5055345;28;20444;-66
2021/12/24 11:56:19;;;;;;;2.57;1.70;;;19.30;38.60;;;;;;5071991;28;20445;-67
2021/12/24 11:58:53;;;;;;;1.93;1.83;;;19.30;38.60;;;;;;5071118;28;20454;-68
2021/12/24 12:04:41;;;;;;;2.00;1.67;;;19.30;38.60;;;;;;5069297;28;21664;-66
2021/12/24 12:07:16;;;;;;;2.20;1.60;;;19.30;38.60;;;;;;5068644;28;20470;-67
2021/12/24 12:09:44;;;;;;;1.73;1.50;;;19.30;38.60;;;;;;5072027;28;20217;-67
2021/12/24 12:12:14;;;;;;;1.63;1.50;;;19.30;38.60;;;;;;5071602;28;20462;-67
2021/12/24 12:14:41;;;;;;;1.90;1.70;;;19.40;38.70;;;;;;5068980;28;21047;-71
2021/12/24 12:17:07;;;;;;;2.97;1.73;;;19.30;38.70;;;;;;5069860;28;20452;-66
2021/12/24 12:19:46;;;;;;;1.77;1.67;;;19.30;38.60;;;;;;5071631;28;20451;-67
2021/12/24 12:22:31;;;;;;;3.60;1.60;;;19.30;38.70;;;;;;5065759;28;20471;-66
2021/12/24 12:25:03;;;;;;;2.30;1.80;;;19.30;38.80;;;;;;5071362;28;20425;-66
2021/12/24 12:27:31;;;;;;;1.50;1.40;;;19.30;38.80;;;;;;5067420;28;20476;-66
2021/12/24 12:29:57;;;;;;;2.27;1.80;;;19.30;38.90;;;;;;5070324;28;21039;-65
2021/12/24 12:32:24;;;;;;;1.67;1.57;;;19.30;38.80;;;;;;5070468;28;20462;-65
2021/12/24 12:34:56;;;;;;;1.60;1.50;;;19.30;38.80;;;;;;5067907;28;20615;-65
2021/12/24 12:37:26;;;;;;;2.40;1.70;;;19.30;38.90;;;;;;5066597;28;20458;-65
2021/12/24 12:40:03;;;;;;;68.63;7.17;;;19.30;39.00;;;;;;5066985;28;20445;-65
2021/12/24 12:45:19;;;;;;;42.07;7.70;;;19.30;38.70;;;;;;5070645;28;20433;-65
2021/12/24 12:47:57;;;;;;;31.77;7.57;;;19.40;38.70;;;;;;5067748;28;20469;-66
2021/12/24 12:50:24;;;;;;;40.50;6.63;;;19.40;38.70;;;;;;5070543;28;20466;-66
2021/12/24 12:52:54;;;;;;;13.00;4.50;;;19.40;38.70;;;;;;5070353;28;21250;-68
2021/12/24 12:55:36;;;;;;;11.37;4.07;;;19.40;39.60;;;;;;5071682;28;20465;-66
2021/12/24 12:58:23;;;;;;;11.97;4.60;;;19.40;38.80;;;;;;5068490;28;20469;-70
2021/12/24 13:04:11;;;;;;;9.20;2.80;;;19.40;38.70;;;;;;5063793;28;20601;-66
2021/12/24 13:10:03;;;;;;;6.60;3.60;;;19.50;38.80;;;;;;5068554;28;20473;-66
2021/12/24 13:12:29;;;;;;;2.77;2.30;;;19.50;38.80;;;;;;5178482;22;20848;-66
2021/12/24 13:14:59;;;;;;;2.87;2.47;;;19.50;38.80;;;;;;5066273;28;20534;-66
2021/12/24 13:17:32;;;;;;;2.70;2.07;;;19.60;38.90;;;;;;5058204;28;20229;-69
2021/12/24 13:20:13;;;;;;;2.70;2.50;;;19.60;38.90;;;;;;5059536;28;20478;-70
2021/12/24 13:22:40;;;;;;;2.10;1.80;;;19.60;38.90;;;;;;5059564;28;20450;-72
2021/12/24 13:25:14;;;;;;;2.87;1.77;;;19.60;38.90;;;;;;5055656;28;20501;-72
2021/12/24 13:27:48;;;;;;;2.73;2.10;;;19.60;38.90;;;;;;5055920;28;20455;-75
2021/12/24 13:30:25;;;;;;;2.30;2.00;;;19.60;38.90;;;;;;5061298;28;20975;-72
2021/12/24 13:33:06;;;;;;;3.80;2.03;;;19.60;38.90;;;;;;5057603;28;20450;-69
2021/12/24 13:35:42;;;;;;;2.40;1.80;;;19.60;38.90;;;;;;5057886;28;20466;-70
2021/12/24 13:38:15;;;;;;;3.03;1.60;;;19.60;38.90;;;;;;5062340;28;20446;-72
2021/12/24 13:40:41;;;;;;;4.13;1.70;;;19.60;38.90;;;;;;5046648;28;20852;-77
2021/12/24 13:43:12;;;;;;;2.00;1.80;;;19.60;39.00;;;;;;5059974;28;20550;-71
2021/12/24 13:45:38;;;;;;;2.20;2.00;;;19.60;39.10;;;;;;5062266;28;20451;-71
2021/12/24 13:48:15;;;;;;;2.30;1.80;;;19.60;39.20;;;;;;5061176;28;20470;-71
2021/12/24 13:56:39;;;;;;;2.60;2.00;;;19.60;39.20;;;;;;5061010;28;20536;-70
2021/12/24 13:59:05;;;;;;;3.33;1.73;;;19.60;39.20;;;;;;5056003;28;20459;-71
2021/12/24 14:01:33;;;;;;;4.33;1.97;;;19.60;39.20;;;;;;5059751;28;20459;-70
2021/12/24 14:04:01;;;;;;;5.10;1.70;;;19.60;39.30;;;;;;5060371;28;20452;-70
2021/12/24 14:06:39;;;;;;;2.03;1.87;;;19.50;39.20;;;;;;5064234;28;20453;-70
2021/12/24 14:09:15;;;;;;;1.80;1.70;;;19.50;39.30;;;;;;5059616;28;20805;-71
2021/12/24 14:11:43;;;;;;;2.40;1.50;;;19.50;39.30;;;;;;5065905;28;20474;-70
2021/12/24 14:14:13;;;;;;;2.33;2.00;;;19.50;39.30;;;;;;5055358;28;20932;-72
2021/12/24 14:19:35;;;;;;;2.17;1.80;;;19.50;39.40;;;;;;5058517;28;20485;-72
2021/12/24 14:22:10;;;;;;;1.87;1.77;;;19.50;39.50;;;;;;5060399;28;20466;-70
2021/12/24 14:24:37;;;;;;;2.43;1.60;;;19.50;39.50;;;;;;5062691;28;20488;-69
2021/12/24 14:27:07;;;;;;;3.07;1.90;;;19.50;39.50;;;;;;5062005;28;20446;-71
2021/12/24 14:29:37;;;;;;;2.70;1.57;;;19.50;39.50;;;;;;5062376;28;20494;-70
2021/12/24 14:32:09;;;;;;;3.97;1.90;;;19.50;39.60;;;;;;5058415;28;20479;-72
2021/12/24 14:34:55;;;;;;;3.20;2.10;;;19.50;39.60;;;;;;5055030;28;20490;-70
2021/12/24 14:37:37;;;;;;;2.50;2.00;;;19.50;39.60;;;;;;5057739;28;20450;-71
2021/12/24 14:40:08;;;;;;;2.53;2.33;;;19.50;39.60;;;;;;5055095;28;20454;-69
2021/12/24 14:42:37;;;;;;;1.83;1.73;;;19.50;39.70;;;;;;5055715;28;20482;-71
2021/12/24 14:45:36;;;;;;;2.63;2.20;;;19.50;39.60;;;;;;5056859;28;20505;-69
2021/12/24 14:48:09;;;;;;;2.70;1.73;;;19.50;39.60;;;;;;5007180;28;20443;-70
2021/12/24 14:50:45;;;;;;;4.37;1.70;;;19.50;39.70;;;;;;5058805;28;20456;-70
2021/12/24 14:53:26;;;;;;;1.80;1.70;;;19.50;40.40;;;;;;5055301;28;20459;-68
2021/12/24 14:56:00;;;;;;;2.63;1.90;;;19.50;39.70;;;;;;5056570;28;20451;-70